Historyczne dane pomiarowe

Dodano dane terminowe – wersja testowa.

Dane z okresu 1951-2019

Wersja bazy: 1.34 [2019-03-16, lista zmian], aktualizacja planowana na 2019-04-15

Dane meteo z obszaru Polski uzyskane na podstawie danych udostępnionych przez Instytut Meteorologii i Gospodarki Wodnej – Państwowy Instytut Badawczy.

 

Wybierz Datę:    

       

TemperaturaWilgotnośćWiatrCiśnienieOpadyŚniegCzas trwania zjawisk
 Stacja t tx tn tng RH VA  wxwx mslp ppp RRR   cm mm wxwxwxwxwxwxwx
1962-02-14 -3.5 1.1 -8.5--- 6.0 1.3---- 0.1-- 10---------
1962-02-15 -5.1 -2.3 -7.0--- 4.0 2.7---- 0.0-- 10---------
1962-02-16 -1.4 2.6 -9.7--- 8.0 8.7---- 10.1-- 10---------
1962-02-17 -1.1 2.5 -3.5--- 7.3 10.7---- 2.4-- 14---------
1962-02-18 -2.5 -1.4 -3.7--- 8.0 9.3---- 0.5-- 17---------
1962-02-19 -3.1 -0.4 -9.3--- 5.3 3.0---- 1.9-- 20---------
1962-02-20 2.3 2.7 -1.9--- 8.0 4.7---- 1.8-- 16---------
1962-02-21 -3.4 2.7 -5.0--- 8.0 4.7---- 0.2-- 14---------
1962-02-22 -7.4 -4.2-10.2--- 5.3 3.0---- 0.0-- 14---------
1962-02-23 -5.4 -4.3-11.7--- 7.0 3.7---- 0.1-- 14---------
1962-02-24 -5.9 -3.8 -7.3--- 8.0 4.7---- 1.1-- 14---------
1962-02-25 -5.5 -4.3-10.3--- 6.0 3.7---- 4.1-- 15---------
1962-02-26 -3.7 -2.2 -4.5--- 8.0 3.0---- 0.8-- 20---------
1962-02-27 -7.8 -3.6-11.2--- 5.3 2.7---- 0.0-- 21---------
1962-02-28-10.4 -3.3-14.6--- 3.3 1.0---- 0.0-- 21---------
1962-03-01-12.0 -5.2-16.7--- 0.0 2.0---- 0.0-- 21---------
1962-03-02 -9.0 -4.3-18.6--- 4.7 0.7---- 0.0-- 21---------
1962-03-03 -3.8 0.1 -6.8--- 8.0 1.0---- 0.0-- 21---------
1962-03-04 0.5 3.2 -5.3--- 8.0 0.7---- 0.2-- 21---------
1962-03-05 -0.8 0.6 -1.5--- 8.0 3.0---- 10.0-- 20---------
1962-03-06 0.0 1.1 -2.0--- 8.0 4.7---- 2.5-- 15---------
1962-03-07 -4.6 -0.4 -6.4--- 4.7 2.7---- 0.0-- 13---------
1962-03-08 -4.1 0.1-13.0--- 3.3 3.0---- 0.0-- 13---------
1962-03-09 -4.1 -0.9 -6.8--- 3.3 2.0---- 0.0-- 11---------
1962-03-10 -1.6 1.1 -6.4--- 5.7 5.3---- 0.0-- 11---------
1962-03-11 2.4 4.7 -1.8--- 8.0 2.7---- 0.0-- 11---------
1962-03-12 1.1 3.2 0.3--- 8.0 1.0---- 9.8-- 10---------
1962-03-13 -5.1 0.6 -5.9--- 7.7 7.7---- 2.4-- 13---------
1962-03-14 -7.6 -2.8-10.7--- 2.0 4.7---- 0.0-- 15---------
1962-03-15 -9.2 -1.7-18.9--- 6.7 0.7---- 0.0-- 15---------
189.2 ms

 

Źródłem pochodzenia danych jest Instytut Meteorologii i Gospodarki Wodnej – Państwowy Instytut Badawczy. Dane Instytutu Meteorologii i Gospodarki Wodnej – Państwowego Instytutu Badawczego zostały przetworzone.

Dane źródłowe można odnaleźć na stronie https://dane.imgw.pl